Terminal Aerodrome Forecast
Issued by NWS Wilmington, OH

Home | Current Version | Previous Version | Text Only | Print | Product List | Glossary On
Versions: 1 2 3 4 5 6 7 8 9 10 11 12 13 14 15 16 17 18 19 20 21 22 23 24 25 26 27 28 29 30 31 32 33 34
000
FTUS41 KILN 292057 AAA
TAFCVG
TAF AMD
KCVG 292057Z 2921/3024 21004KT P6SM VCSH BKN035
     FM300000 00000KT P6SM BKN040
     FM300800 00000KT 4SM BR SCT035 BKN250
     FM301300 24006KT P6SM SCT035
     FM301700 24006KT P6SM VCTS BKN035CB
     FM302000 24006KT P6SM VCSH BKN050=

USA.gov is the U.S. government's official web portal to all federal, state and local government web resources and services.